Terminal Aerodrome Forecast
Issued by NWS

Home | Current Version | Previous Version | Text Only | Print | Product List | Glossary On
Versions: 1 2 3 4 5 6 7 8 9 10 11 12 13 14 15 16
000
FTAK31 PAJN 221720
TAFAJN
TAF
PAJN 221720Z 2218/2318 VRB03KT P6SM -SHRA SCT020 BKN035 OVC050
     FM230300 VRB03KT 6SM -SHRA BR BKN025 OVC040
     FM230800 13012KT 4SM -SHRA BR OVC025
     FM231500 10009KT 6SM -SHRA SCT025 OVC040=

USA.gov is the U.S. government's official web portal to all federal, state and local government web resources and services.